Time;durP1;ratioP1;P1;durP2;ratioP2;P2;SDS_P1;SDS_P2;PMS_P1;PMS_P2;Temp;Humidity;BMP_temperature;BMP_pressure;BME280_temperature;BME280_humidity;BME280_pressure;Samples;Min_cycle;Max_cycle;Signal;HPM_P1;HPM_P2
2020/12/27 00:00:29;;;;;;;48.38;25.00;;;;;;;;;;5054725;28;20112;-66
2020/12/27 00:02:56;;;;;;;54.83;27.90;;;;;;;;;;5054422;28;20051;-65
2020/12/27 00:05:22;;;;;;;47.17;22.88;;;;;;;;;;5053153;28;20116;-65
2020/12/27 00:07:47;;;;;;;43.03;22.73;;;;;;;;;;5054367;28;20068;-65
2020/12/27 00:10:13;;;;;;;36.92;19.95;;;;;;;;;;5054446;28;20037;-65
2020/12/27 00:12:39;;;;;;;36.10;20.30;;;;;;;;;;5053947;28;20083;-65
2020/12/27 00:15:05;;;;;;;36.92;18.70;;;;;;;;;;5054191;28;20052;-65
2020/12/27 00:17:30;;;;;;;40.00;21.25;;;;;;;;;;5052977;28;20475;-65
2020/12/27 00:19:56;;;;;;;58.50;24.25;;;;;;;;;;5054131;28;20450;-65
2020/12/27 00:22:21;;;;;;;40.83;20.30;;;;;;;;;;5054134;28;20017;-65
2020/12/27 00:24:49;;;;;;;33.92;16.77;;;;;;;;;;5053988;28;20068;-65
2020/12/27 00:27:15;;;;;;;32.58;17.35;;;;;;;;;;5054035;28;20108;-65
2020/12/27 00:29:40;;;;;;;33.92;17.88;;;;;;;;;;5054104;28;20047;-65
2020/12/27 00:32:06;;;;;;;30.77;16.75;;;;;;;;;;5054006;28;20032;-65
2020/12/27 00:34:33;;;;;;;30.70;15.82;;;;;;;;;;5053948;28;20036;-65
2020/12/27 00:36:59;;;;;;;30.80;16.92;;;;;;;;;;5053953;28;20048;-65
2020/12/27 00:39:25;;;;;;;32.90;17.52;;;;;;;;;;5053700;28;20032;-65
2020/12/27 00:41:51;;;;;;;35.78;18.60;;;;;;;;;;5053578;28;20041;-66
2020/12/27 00:44:17;;;;;;;34.90;18.58;;;;;;;;;;5053897;28;20040;-65
2020/12/27 00:46:46;;;;;;;55.22;23.48;;;;;;;;;;5053642;28;20041;-65
2020/12/27 00:49:12;;;;;;;63.63;25.10;;;;;;;;;;5035978;28;20040;-65
2020/12/27 00:51:38;;;;;;;51.97;21.70;;;;;;;;;;5052367;28;20029;-65
2020/12/27 00:54:04;;;;;;;42.42;18.38;;;;;;;;;;5053746;28;20037;-65
2020/12/27 00:56:30;;;;;;;40.95;19.17;;;;;;;;;;5052274;28;20033;-65
2020/12/27 00:59:09;;;;;;;35.35;17.30;;;;;;;;;;5053672;28;20065;-65
2020/12/27 01:01:35;;;;;;;35.88;16.30;;;;;;;;;;5035664;28;20067;-64
2020/12/27 01:04:19;;;;;;;34.38;18.27;;;;;;;;;;5052209;28;20037;-64
2020/12/27 01:06:44;;;;;;;35.47;16.77;;;;;;;;;;5053400;28;20418;-64
2020/12/27 01:09:10;;;;;;;32.50;18.13;;;;;;;;;;5052298;28;20057;-64
2020/12/27 01:11:37;;;;;;;31.60;16.63;;;;;;;;;;5052188;28;20372;-64
2020/12/27 01:14:02;;;;;;;28.58;15.10;;;;;;;;;;5035367;28;20032;-64
2020/12/27 01:16:28;;;;;;;28.15;15.13;;;;;;;;;;5051951;28;20043;-65
2020/12/27 01:18:54;;;;;;;36.28;18.02;;;;;;;;;;5051914;28;20040;-64
2020/12/27 01:21:31;;;;;;;31.23;17.65;;;;;;;;;;5051885;28;20491;-65
2020/12/27 01:24:03;;;;;;;32.78;16.23;;;;;;;;;;5035301;28;20049;-66
2020/12/27 01:26:32;;;;;;;31.98;16.33;;;;;;;;;;5053231;28;20045;-66
2020/12/27 01:28:58;;;;;;;34.70;18.67;;;;;;;;;;5051764;28;20028;-65
2020/12/27 01:31:24;;;;;;;35.35;18.30;;;;;;;;;;5035225;28;20407;-66
2020/12/27 01:33:51;;;;;;;36.80;19.05;;;;;;;;;;5035356;28;20033;-66
2020/12/27 01:36:32;;;;;;;34.95;18.67;;;;;;;;;;5035449;28;20399;-67
2020/12/27 01:38:58;;;;;;;36.42;19.48;;;;;;;;;;5053200;28;20037;-66
2020/12/27 01:41:24;;;;;;;36.75;18.95;;;;;;;;;;5051729;28;20024;-66
2020/12/27 01:43:57;;;;;;;38.13;19.73;;;;;;;;;;5031687;28;20045;-66
2020/12/27 01:46:23;;;;;;;35.70;18.45;;;;;;;;;;5031837;28;20125;-66
2020/12/27 01:48:49;;;;;;;36.45;18.27;;;;;;;;;;5031824;28;20056;-66
2020/12/27 01:51:15;;;;;;;35.30;18.10;;;;;;;;;;5015478;28;20037;-66
2020/12/27 01:53:48;;;;;;;34.28;16.98;;;;;;;;;;5031570;28;20041;-66
2020/12/27 01:56:41;;;;;;;28.60;15.45;;;;;;;;;;5032850;28;20506;-65
2020/12/27 01:59:16;;;;;;;28.92;15.80;;;;;;;;;;5019337;28;20033;-65
2020/12/27 02:01:42;;;;;;;33.33;16.23;;;;;;;;;;5035737;28;20039;-65
2020/12/27 02:04:31;;;;;;;29.30;15.93;;;;;;;;;;5025720;28;20037;-65
2020/12/27 02:06:58;;;;;;;30.08;15.05;;;;;;;;;;5019192;28;20092;-65
2020/12/27 02:09:44;;;;;;;32.25;16.60;;;;;;;;;;5036589;28;20029;-65
2020/12/27 02:12:11;;;;;;;33.20;16.38;;;;;;;;;;5035419;28;20396;-65
2020/12/27 02:14:41;;;;;;;34.50;17.50;;;;;;;;;;5018868;28;20495;-65
2020/12/27 02:17:07;;;;;;;32.05;16.90;;;;;;;;;;5018937;28;20076;-65
2020/12/27 02:19:53;;;;;;;28.77;16.60;;;;;;;;;;5035383;28;20115;-65
2020/12/27 02:22:35;;;;;;;28.90;15.95;;;;;;;;;;5035371;28;20038;-65
2020/12/27 02:25:24;;;;;;;31.60;16.08;;;;;;;;;;5021473;28;20036;-65
2020/12/27 02:27:59;;;;;;;27.48;15.07;;;;;;;;;;5035503;28;20053;-67
2020/12/27 02:30:26;;;;;;;27.80;14.75;;;;;;;;;;5018659;28;20523;-67
2020/12/27 02:32:51;;;;;;;25.65;13.93;;;;;;;;;;5035273;28;20025;-67
2020/12/27 02:35:17;;;;;;;29.33;14.02;;;;;;;;;;5018587;28;20532;-65
2020/12/27 02:37:46;;;;;;;26.55;13.88;;;;;;;;;;5018403;28;20037;-65
2020/12/27 02:40:13;;;;;;;24.23;13.63;;;;;;;;;;5018510;28;20081;-66
2020/12/27 02:42:57;;;;;;;23.73;13.80;;;;;;;;;;5046338;28;20060;-65
2020/12/27 02:45:23;;;;;;;22.88;13.57;;;;;;;;;;5037976;28;20029;-66
2020/12/27 02:48:12;;;;;;;24.38;13.30;;;;;;;;;;5027219;28;20037;-66
2020/12/27 02:50:49;;;;;;;24.48;12.35;;;;;;;;;;5054765;28;20087;-66
2020/12/27 02:53:14;;;;;;;19.67;11.95;;;;;;;;;;5054601;28;20045;-66
2020/12/27 02:55:42;;;;;;;22.02;11.82;;;;;;;;;;5037915;28;20033;-66
2020/12/27 02:58:07;;;;;;;18.83;11.02;;;;;;;;;;5055458;28;20082;-66
2020/12/27 03:00:34;;;;;;;19.90;11.23;;;;;;;;;;5054952;28;20064;-66
2020/12/27 03:03:32;;;;;;;19.63;10.60;;;;;;;;;;5032044;28;20025;-66
2020/12/27 03:06:05;;;;;;;22.63;11.55;;;;;;;;;;5054319;28;20047;-66
2020/12/27 03:08:31;;;;;;;17.20;10.23;;;;;;;;;;5054610;28;20426;-67
2020/12/27 03:11:15;;;;;;;20.77;10.25;;;;;;;;;;5056567;28;20474;-67
2020/12/27 03:13:42;;;;;;;22.08;11.90;;;;;;;;;;5054332;28;20070;-67
2020/12/27 03:16:08;;;;;;;37.33;17.67;;;;;;;;;;5037690;28;20119;-66
2020/12/27 03:18:52;;;;;;;24.58;11.45;;;;;;;;;;5055972;28;20040;-66
2020/12/27 03:21:29;;;;;;;45.05;21.52;;;;;;;;;;5055385;28;20100;-66
2020/12/27 03:23:55;;;;;;;34.53;16.05;;;;;;;;;;5054168;28;20041;-66
2020/12/27 03:26:28;;;;;;;17.20;9.48;;;;;;;;;;5037493;28;20108;-66
2020/12/27 03:28:55;;;;;;;17.15;8.48;;;;;;;;;;5037368;28;20033;-66
2020/12/27 03:31:21;;;;;;;13.25;8.18;;;;;;;;;;5037393;28;20036;-66
2020/12/27 03:33:47;;;;;;;18.50;10.45;;;;;;;;;;5037300;28;20029;-66
2020/12/27 03:36:16;;;;;;;26.08;14.52;;;;;;;;;;5055201;28;20445;-65
2020/12/27 03:38:57;;;;;;;15.25;9.23;;;;;;;;;;5037201;28;20037;-66
2020/12/27 03:41:51;;;;;;;14.98;8.25;;;;;;;;;;5018042;28;20408;-65
2020/12/27 03:44:30;;;;;;;12.02;7.32;;;;;;;;;;5037089;28;20071;-65
2020/12/27 03:47:30;;;;;;;10.02;7.15;;;;;;;;;;5054893;28;20037;-66
2020/12/27 03:50:10;;;;;;;11.57;6.97;;;;;;;;;;5037007;28;20048;-66
2020/12/27 03:52:40;;;;;;;9.30;6.65;;;;;;;;;;5036825;28;20036;-66
2020/12/27 03:55:20;;;;;;;9.82;6.57;;;;;;;;;;5036999;28;20049;-66
2020/12/27 03:57:58;;;;;;;11.07;6.43;;;;;;;;;;5054622;28;20474;-66
2020/12/27 04:00:44;;;;;;;10.10;6.72;;;;;;;;;;5053408;28;20044;-65
2020/12/27 04:03:24;;;;;;;10.38;6.47;;;;;;;;;;5036856;28;20380;-66
2020/12/27 04:05:51;;;;;;;8.32;6.10;;;;;;;;;;5053170;28;20557;-66
2020/12/27 04:08:22;;;;;;;10.70;6.38;;;;;;;;;;5053387;28;20025;-67
2020/12/27 04:10:48;;;;;;;9.63;6.68;;;;;;;;;;5053163;28;20037;-66
2020/12/27 04:13:15;;;;;;;10.63;6.10;;;;;;;;;;5036449;28;20029;-66
2020/12/27 04:15:44;;;;;;;11.68;6.57;;;;;;;;;;5052866;28;20372;-66
2020/12/27 04:18:18;;;;;;;11.05;6.75;;;;;;;;;;5036550;28;20024;-66
2020/12/27 04:21:13;;;;;;;11.88;6.53;;;;;;;;;;5021595;28;20041;-65
2020/12/27 04:23:40;;;;;;;10.40;6.90;;;;;;;;;;5053096;28;20048;-66
2020/12/27 04:26:06;;;;;;;9.65;6.45;;;;;;;;;;5036386;28;20424;-66
2020/12/27 04:28:33;;;;;;;9.90;6.75;;;;;;;;;;5036251;28;20072;-65
2020/12/27 04:30:59;;;;;;;10.30;6.40;;;;;;;;;;5036081;28;20052;-66
2020/12/27 04:33:40;;;;;;;11.52;6.78;;;;;;;;;;5036298;28;20036;-65
2020/12/27 04:36:19;;;;;;;11.27;6.82;;;;;;;;;;5036225;28;20492;-65
2020/12/27 04:38:48;;;;;;;12.68;7.30;;;;;;;;;;5036030;28;20120;-65
2020/12/27 04:41:15;;;;;;;15.63;7.88;;;;;;;;;;5052675;28;20028;-65
2020/12/27 04:43:45;;;;;;;11.07;7.38;;;;;;;;;;5052644;28;20037;-65
2020/12/27 04:46:12;;;;;;;12.90;8.27;;;;;;;;;;5035910;28;20048;-65
2020/12/27 04:48:45;;;;;;;12.52;7.30;;;;;;;;;;5035838;28;20128;-65
2020/12/27 04:51:19;;;;;;;13.40;8.00;;;;;;;;;;5035937;28;20063;-65
2020/12/27 04:53:54;;;;;;;10.50;7.50;;;;;;;;;;5035861;28;20033;-65
2020/12/27 04:56:28;;;;;;;16.13;9.85;;;;;;;;;;5035825;28;20036;-65
2020/12/27 04:59:10;;;;;;;19.98;13.30;;;;;;;;;;5035675;28;20103;-65
2020/12/27 05:01:38;;;;;;;31.98;17.48;;;;;;;;;;5035573;28;20479;-66
2020/12/27 05:04:09;;;;;;;29.58;16.00;;;;;;;;;;5052203;28;20033;-66
2020/12/27 05:06:49;;;;;;;25.83;14.80;;;;;;;;;;5052322;28;20041;-66
2020/12/27 05:09:26;;;;;;;24.45;13.90;;;;;;;;;;5036496;28;20403;-66
2020/12/27 05:11:53;;;;;;;24.15;12.85;;;;;;;;;;5052114;28;20551;-67
2020/12/27 05:14:25;;;;;;;20.13;10.45;;;;;;;;;;5035508;28;20040;-67
2020/12/27 05:16:55;;;;;;;19.02;11.60;;;;;;;;;;5052106;28;20040;-67
2020/12/27 05:19:25;;;;;;;39.40;18.33;;;;;;;;;;5051985;28;20033;-67
2020/12/27 05:21:53;;;;;;;46.70;21.98;;;;;;;;;;5039930;28;20422;-67
2020/12/27 05:24:36;;;;;;;39.10;19.23;;;;;;;;;;5055173;28;20025;-67
2020/12/27 05:27:15;;;;;;;24.95;14.68;;;;;;;;;;5063405;28;20036;-67
2020/12/27 05:30:07;;;;;;;20.85;13.23;;;;;;;;;;5071020;28;20040;-66
2020/12/27 05:32:52;;;;;;;23.58;12.82;;;;;;;;;;5072791;28;20094;-66
2020/12/27 05:35:37;;;;;;;16.27;9.70;;;;;;;;;;5073563;28;20043;-66
2020/12/27 05:38:08;;;;;;;18.00;10.40;;;;;;;;;;5055113;28;20087;-67
2020/12/27 05:41:09;;;;;;;19.00;10.25;;;;;;;;;;5072356;28;20060;-65
2020/12/27 05:43:45;;;;;;;17.00;9.73;;;;;;;;;;5054876;28;20060;-65
2020/12/27 05:46:17;;;;;;;17.25;10.98;;;;;;;;;;5054968;28;20556;-65
2020/12/27 05:48:45;;;;;;;19.70;11.13;;;;;;;;;;5071797;28;20036;-65
2020/12/27 05:51:14;;;;;;;19.75;11.43;;;;;;;;;;5049513;28;20503;-65
2020/12/27 05:53:41;;;;;;;27.33;15.55;;;;;;;;;;5035139;28;20491;-65
2020/12/27 05:56:10;;;;;;;21.70;13.30;;;;;;;;;;5035172;28;20032;-65
2020/12/27 05:58:44;;;;;;;24.88;14.65;;;;;;;;;;5051692;28;20036;-66
2020/12/27 06:01:21;;;;;;;22.63;13.88;;;;;;;;;;5035067;28;20086;-65
2020/12/27 06:03:47;;;;;;;;;;;;;;;;;;5035379;28;20083;-65
2020/12/27 06:06:29;;;;;;;28.10;15.75;;;;;;;;;;5051394;28;19971;-65
2020/12/27 06:09:01;;;;;;;33.95;17.20;;;;;;;;;;5051638;28;20041;-65
2020/12/27 06:11:35;;;;;;;36.33;19.98;;;;;;;;;;5051581;28;20040;-65
2020/12/27 06:14:16;;;;;;;33.05;19.08;;;;;;;;;;5035086;28;20045;-65
2020/12/27 06:17:15;;;;;;;31.58;19.50;;;;;;;;;;5052568;28;20051;-65
2020/12/27 06:20:07;;;;;;;22.83;15.38;;;;;;;;;;5052052;28;20052;-65
2020/12/27 06:22:39;;;;;;;24.38;13.82;;;;;;;;;;5034628;28;20056;-65
2020/12/27 06:25:20;;;;;;;29.02;16.42;;;;;;;;;;5034725;28;20040;-65
2020/12/27 06:27:49;;;;;;;30.67;18.25;;;;;;;;;;5034922;28;20073;-65
2020/12/27 06:30:25;;;;;;;38.78;22.67;;;;;;;;;;5051389;28;20060;-65
2020/12/27 06:33:21;;;;;;;54.95;30.83;;;;;;;;;;5043677;28;20498;-65
2020/12/27 06:35:47;;;;;;;62.63;36.45;;;;;;;;;;5051048;28;20103;-65
2020/12/27 06:38:15;;;;;;;59.47;33.60;;;;;;;;;;5051196;28;20025;-65
2020/12/27 06:40:47;;;;;;;45.63;27.25;;;;;;;;;;5052619;28;20564;-65
2020/12/27 06:43:24;;;;;;;41.75;24.80;;;;;;;;;;5035697;28;20048;-65
2020/12/27 06:46:35;;;;;;;44.05;24.25;;;;;;;;;;5038373;28;20056;-65
2020/12/27 06:49:07;;;;;;;28.77;17.73;;;;;;;;;;5021185;28;20136;-66
2020/12/27 06:52:22;;;;;;;33.97;22.38;;;;;;;;;;5041963;28;20037;-65
2020/12/27 06:55:06;;;;;;;36.13;21.50;;;;;;;;;;5056208;28;20048;-65
2020/12/27 06:58:13;;;;;;;34.25;19.80;;;;;;;;;;5052874;28;20064;-65
2020/12/27 07:00:39;;;;;;;33.03;17.52;;;;;;;;;;5054779;28;20037;-65
2020/12/27 07:03:15;;;;;;;47.33;23.77;;;;;;;;;;5037875;28;20029;-65
2020/12/27 07:05:41;;;;;;;28.70;16.08;;;;;;;;;;5054453;28;20069;-65
2020/12/27 07:08:10;;;;;;;13.38;9.73;;;;;;;;;;5055653;28;20518;-66
2020/12/27 07:10:37;;;;;;;13.38;8.68;;;;;;;;;;5055640;28;20037;-66
2020/12/27 07:13:11;;;;;;;14.15;9.23;;;;;;;;;;5055616;28;20017;-65
2020/12/27 07:15:45;;;;;;;17.27;9.73;;;;;;;;;;5054363;28;20037;-65
2020/12/27 07:18:12;;;;;;;13.27;9.43;;;;;;;;;;5054226;28;20083;-65
2020/12/27 07:20:38;;;;;;;14.35;8.82;;;;;;;;;;5055399;28;20491;-66
2020/12/27 07:23:24;;;;;;;13.90;9.32;;;;;;;;;;5055424;28;20033;-66
2020/12/27 07:25:53;;;;;;;15.00;10.55;;;;;;;;;;5054987;28;20480;-65
2020/12/27 07:28:20;;;;;;;16.80;10.80;;;;;;;;;;5055044;28;20032;-65
2020/12/27 07:30:47;;;;;;;14.88;9.07;;;;;;;;;;5055371;28;20045;-66
2020/12/27 07:33:13;;;;;;;13.55;9.32;;;;;;;;;;5055271;28;20024;-66
2020/12/27 07:35:39;;;;;;;12.95;9.10;;;;;;;;;;5055198;28;20123;-66
2020/12/27 07:38:06;;;;;;;13.68;9.20;;;;;;;;;;5055112;28;20053;-66
2020/12/27 07:40:33;;;;;;;49.58;27.35;;;;;;;;;;5055229;28;20455;-62
2020/12/27 07:43:00;;;;;;;57.83;32.70;;;;;;;;;;5050214;28;20090;-61
2020/12/27 07:45:26;;;;;;;55.55;31.02;;;;;;;;;;5054017;28;20067;-61
2020/12/27 07:47:52;;;;;;;44.95;25.00;;;;;;;;;;5064465;28;20041;-61
2020/12/27 07:50:18;;;;;;;35.55;21.45;;;;;;;;;;5074310;28;20422;-61
2020/12/27 07:52:50;;;;;;;25.67;16.52;;;;;;;;;;5074348;28;20090;-61
2020/12/27 07:55:42;;;;;;;27.05;17.17;;;;;;;;;;5055146;28;20107;-61
2020/12/27 07:58:08;;;;;;;29.40;17.98;;;;;;;;;;5071338;28;20091;-61
2020/12/27 08:00:35;;;;;;;36.45;17.70;;;;;;;;;;5069722;28;20580;-61
2020/12/27 08:03:07;;;;;;;40.47;18.77;;;;;;;;;;5073967;28;20379;-61
2020/12/27 08:05:36;;;;;;;43.55;20.60;;;;;;;;;;5073620;28;20033;-61
2020/12/27 08:08:11;;;;;;;37.50;18.50;;;;;;;;;;5073502;28;20028;-61
2020/12/27 08:10:37;;;;;;;45.85;21.67;;;;;;;;;;5073997;28;20043;-61
2020/12/27 08:13:04;;;;;;;57.85;27.02;;;;;;;;;;5055869;28;20382;-61
2020/12/27 08:15:30;;;;;;;33.13;17.67;;;;;;;;;;5055494;28;20047;-61
2020/12/27 08:17:57;;;;;;;24.20;12.40;;;;;;;;;;5073799;28;20386;-61
2020/12/27 08:20:23;;;;;;;35.05;14.45;;;;;;;;;;5073168;28;20094;-61
2020/12/27 08:23:02;;;;;;;20.95;10.43;;;;;;;;;;5057100;28;20056;-61
2020/12/27 08:25:28;;;;;;;26.63;13.48;;;;;;;;;;5073298;28;20097;-61
2020/12/27 08:27:55;;;;;;;27.02;13.98;;;;;;;;;;5073282;28;20021;-61
2020/12/27 08:30:22;;;;;;;48.40;26.02;;;;;;;;;;5056156;28;20079;-61
2020/12/27 08:32:48;;;;;;;52.28;20.50;;;;;;;;;;5073917;28;20032;-61
2020/12/27 08:35:23;;;;;;;71.38;28.10;;;;;;;;;;5073892;28;20036;-61
2020/12/27 08:37:53;;;;;;;42.15;18.52;;;;;;;;;;5073720;28;20119;-61
2020/12/27 08:40:18;;;;;;;26.13;14.55;;;;;;;;;;5073971;28;20029;-61
2020/12/27 08:42:45;;;;;;;26.60;14.45;;;;;;;;;;5073303;28;20040;-61
2020/12/27 08:45:13;;;;;;;29.55;16.23;;;;;;;;;;5073616;28;20036;-61
2020/12/27 08:47:44;;;;;;;35.50;17.67;;;;;;;;;;5072081;28;20036;-61
2020/12/27 08:50:14;;;;;;;52.40;34.63;;;;;;;;;;5072078;28;20419;-61
2020/12/27 08:52:40;;;;;;;37.78;19.20;;;;;;;;;;5072102;28;20120;-61
2020/12/27 09:09:24;;;;;;;21.35;13.45;;;;;;;;;;5052033;28;20067;-60
2020/12/27 09:25:36;;;;;;;36.85;18.83;;;;;;;;;;5051628;28;20470;-60
2020/12/27 09:41:47;;;;;;;23.95;13.15;;;;;;;;;;5073760;28;20473;-60
2020/12/27 09:50:57;;;;;;;23.52;12.90;;;;;;;;;;5073906;28;20075;-60
2020/12/27 09:56:58;;;;;;;12.73;7.60;;;;;;;;;;5073869;28;20063;-60
2020/12/27 10:02:59;;;;;;;8.07;6.13;;;;;;;;;;5073587;28;20063;-60
2020/12/27 10:09:00;;;;;;;7.85;5.65;;;;;;;;;;5073528;28;20095;-60
2020/12/27 10:15:01;;;;;;;8.35;5.40;;;;;;;;;;5073454;28;20131;-60
2020/12/27 10:21:02;;;;;;;13.02;7.45;;;;;;;;;;5077315;28;20035;-60
2020/12/27 16:03:18;;;;;;;93.22;57.88;;;;;;;;;;5091530;28;19921;-60
2020/12/27 16:05:44;;;;;;;190.68;126.55;;;;;;;;;;5095166;28;20048;-60
2020/12/27 16:08:11;;;;;;;61.75;40.05;;;;;;;;;;5093908;28;20039;-60
2020/12/27 16:10:36;;;;;;;127.88;82.90;;;;;;;;;;5087370;28;20028;-60
2020/12/27 16:13:02;;;;;;;48.88;28.95;;;;;;;;;;5093896;28;20535;-61
2020/12/27 16:15:31;;;;;;;51.15;27.58;;;;;;;;;;5074933;28;20032;-60
2020/12/27 16:17:56;;;;;;;47.13;26.50;;;;;;;;;;5093588;28;20031;-60
2020/12/27 16:20:25;;;;;;;43.95;24.92;;;;;;;;;;5075468;28;20040;-60
2020/12/27 16:22:51;;;;;;;37.88;21.98;;;;;;;;;;5075608;28;20063;-61
2020/12/27 16:25:17;;;;;;;42.42;23.27;;;;;;;;;;5093622;28;20032;-60
2020/12/27 16:27:42;;;;;;;38.40;22.17;;;;;;;;;;5075437;28;20149;-60
2020/12/27 16:30:08;;;;;;;45.60;24.75;;;;;;;;;;5075192;28;20039;-61
2020/12/27 16:32:33;;;;;;;38.88;22.80;;;;;;;;;;5093644;28;20470;-60
2020/12/27 16:34:59;;;;;;;40.88;22.00;;;;;;;;;;5075572;28;20035;-61
2020/12/27 16:37:26;;;;;;;32.55;18.67;;;;;;;;;;5093216;28;20074;-62
2020/12/27 16:39:53;;;;;;;36.97;19.33;;;;;;;;;;5093423;28;20085;-60
2020/12/27 16:42:18;;;;;;;35.00;18.50;;;;;;;;;;5093687;28;20431;-60
2020/12/27 16:44:44;;;;;;;40.13;20.83;;;;;;;;;;5075140;28;20499;-60
2020/12/27 16:47:09;;;;;;;44.10;21.70;;;;;;;;;;5093396;28;20020;-60
2020/12/27 16:49:35;;;;;;;42.10;22.17;;;;;;;;;;5093184;28;20036;-60
2020/12/27 16:52:00;;;;;;;36.40;18.83;;;;;;;;;;5093297;28;20026;-60
2020/12/27 16:54:26;;;;;;;46.78;23.73;;;;;;;;;;5093589;28;20028;-60
2020/12/27 16:56:51;;;;;;;52.90;25.65;;;;;;;;;;5093127;28;20360;-60
2020/12/27 16:59:17;;;;;;;54.78;26.70;;;;;;;;;;5092971;28;20064;-60
2020/12/27 17:01:48;;;;;;;46.55;21.67;;;;;;;;;;5092443;28;20031;-60
2020/12/27 17:04:13;;;;;;;43.97;19.30;;;;;;;;;;5092535;28;20036;-60
2020/12/27 17:06:39;;;;;;;46.45;22.55;;;;;;;;;;5093211;28;20155;-60
2020/12/27 17:09:05;;;;;;;48.15;22.60;;;;;;;;;;5092944;28;20032;-59
2020/12/27 17:11:30;;;;;;;43.50;18.95;;;;;;;;;;5074963;28;20114;-60
2020/12/27 17:13:56;;;;;;;68.22;35.85;;;;;;;;;;5093043;28;20080;-61
2020/12/27 17:16:27;;;;;;;51.67;28.33;;;;;;;;;;5093031;28;20394;-61
2020/12/27 17:18:56;;;;;;;48.67;21.63;;;;;;;;;;5092757;28;20039;-61
2020/12/27 17:21:21;;;;;;;40.40;18.55;;;;;;;;;;5093029;28;20122;-62
2020/12/27 17:23:47;;;;;;;49.13;25.90;;;;;;;;;;5072332;28;20049;-64
2020/12/27 17:26:12;;;;;;;54.38;27.63;;;;;;;;;;5092135;28;20035;-62
2020/12/27 17:28:38;;;;;;;35.17;21.13;;;;;;;;;;5092597;28;20054;-62
2020/12/27 17:31:03;;;;;;;49.35;34.75;;;;;;;;;;5092617;28;20107;-61
2020/12/27 17:33:29;;;;;;;85.97;63.63;;;;;;;;;;5092621;28;20028;-61
2020/12/27 17:35:55;;;;;;;38.22;26.13;;;;;;;;;;5082881;28;20161;-61
2020/12/27 17:38:20;;;;;;;49.33;34.67;;;;;;;;;;5079197;28;20473;-62
2020/12/27 17:40:46;;;;;;;32.53;21.08;;;;;;;;;;5088416;28;20072;-61
2020/12/27 17:43:11;;;;;;;38.03;21.88;;;;;;;;;;5074354;28;20051;-61
2020/12/27 17:45:37;;;;;;;40.10;24.88;;;;;;;;;;5072439;28;20029;-61
2020/12/27 17:48:03;;;;;;;34.97;20.77;;;;;;;;;;5084701;28;20032;-61
2020/12/27 17:50:28;;;;;;;40.00;22.13;;;;;;;;;;5092616;28;20050;-61
2020/12/27 17:52:54;;;;;;;43.15;22.02;;;;;;;;;;5092790;28;20043;-61
2020/12/27 17:55:21;;;;;;;49.75;23.65;;;;;;;;;;5084046;28;20052;-61
2020/12/27 17:57:46;;;;;;;40.95;18.05;;;;;;;;;;5076185;28;20074;-64
2020/12/27 18:00:13;;;;;;;26.63;14.48;;;;;;;;;;5083227;28;20466;-64
2020/12/27 18:02:39;;;;;;;29.13;15.00;;;;;;;;;;5076682;28;20037;-64
2020/12/27 18:05:05;;;;;;;25.77;14.00;;;;;;;;;;5072361;28;20032;-64
2020/12/27 18:07:31;;;;;;;27.92;14.82;;;;;;;;;;5074683;28;20035;-61
2020/12/27 18:09:56;;;;;;;27.90;16.65;;;;;;;;;;5084513;28;20017;-62
2020/12/27 18:12:22;;;;;;;32.20;18.02;;;;;;;;;;5083999;28;20052;-61
2020/12/27 18:14:48;;;;;;;34.45;18.23;;;;;;;;;;5092280;28;20028;-61
2020/12/27 18:17:15;;;;;;;36.13;20.52;;;;;;;;;;5083997;28;20471;-61
2020/12/27 18:19:44;;;;;;;22.02;12.25;;;;;;;;;;5071963;28;20079;-61
2020/12/27 18:22:10;;;;;;;36.85;19.15;;;;;;;;;;5071911;28;20028;-61
2020/12/27 18:24:38;;;;;;;81.95;42.25;;;;;;;;;;5072033;28;20398;-61
2020/12/27 18:27:04;;;;;;;63.65;33.00;;;;;;;;;;5072149;28;20120;-60
2020/12/27 18:29:30;;;;;;;109.88;58.47;;;;;;;;;;5072044;28;20506;-62
2020/12/27 18:31:56;;;;;;;122.43;73.15;;;;;;;;;;5072389;28;20048;-61
2020/12/27 18:34:21;;;;;;;47.85;27.02;;;;;;;;;;5071995;28;20040;-61
2020/12/27 18:36:47;;;;;;;30.85;15.95;;;;;;;;;;5072038;28;20040;-60
2020/12/27 18:39:12;;;;;;;26.33;14.93;;;;;;;;;;5076324;28;20036;-61
2020/12/27 18:41:38;;;;;;;26.60;15.30;;;;;;;;;;5094713;28;20072;-61
2020/12/27 18:44:03;;;;;;;27.30;15.15;;;;;;;;;;5088436;28;20498;-61
2020/12/27 18:46:29;;;;;;;24.55;14.45;;;;;;;;;;5075713;28;20036;-61
2020/12/27 18:48:57;;;;;;;31.75;16.77;;;;;;;;;;5075102;28;20017;-61
2020/12/27 18:51:23;;;;;;;26.25;14.93;;;;;;;;;;5075517;28;20040;-61
2020/12/27 18:53:48;;;;;;;27.48;14.55;;;;;;;;;;5075253;28;20029;-60
2020/12/27 18:56:14;;;;;;;25.90;14.80;;;;;;;;;;5057416;28;20182;-61
2020/12/27 18:58:40;;;;;;;34.42;16.80;;;;;;;;;;5075267;28;20029;-60
2020/12/27 19:01:07;;;;;;;26.25;14.80;;;;;;;;;;5075373;28;20055;-61
2020/12/27 19:03:34;;;;;;;26.73;15.48;;;;;;;;;;5074974;28;20080;-61
2020/12/27 19:05:59;;;;;;;47.05;22.80;;;;;;;;;;5075208;28;20048;-61
2020/12/27 19:08:25;;;;;;;45.88;21.33;;;;;;;;;;5074949;28;20032;-60
2020/12/27 19:10:50;;;;;;;45.53;20.10;;;;;;;;;;5057144;28;20033;-61
2020/12/27 19:13:16;;;;;;;34.30;17.08;;;;;;;;;;5075049;28;20020;-61
2020/12/27 19:15:41;;;;;;;57.97;22.02;;;;;;;;;;5074990;28;20072;-60
2020/12/27 19:18:07;;;;;;;73.55;29.08;;;;;;;;;;5074839;28;20060;-61
2020/12/27 19:20:32;;;;;;;69.55;24.83;;;;;;;;;;5081410;28;20032;-64
2020/12/27 19:22:58;;;;;;;59.72;23.98;;;;;;;;;;5081035;28;20089;-63
2020/12/27 19:25:23;;;;;;;98.57;31.08;;;;;;;;;;5087564;28;20040;-64
2020/12/27 19:27:49;;;;;;;66.13;23.02;;;;;;;;;;5077100;28;20364;-63
2020/12/27 19:30:15;;;;;;;45.20;20.42;;;;;;;;;;5094181;28;20038;-63
2020/12/27 19:32:40;;;;;;;79.45;30.77;;;;;;;;;;5095204;28;20024;-64
2020/12/27 19:35:06;;;;;;;70.55;24.20;;;;;;;;;;5094852;28;20036;-63
2020/12/27 19:37:32;;;;;;;59.65;23.23;;;;;;;;;;5094801;28;20032;-63
2020/12/27 19:39:57;;;;;;;51.95;20.90;;;;;;;;;;5094812;28;20042;-64
2020/12/27 19:42:23;;;;;;;57.10;23.35;;;;;;;;;;5094848;28;20063;-63
2020/12/27 19:44:49;;;;;;;56.50;23.08;;;;;;;;;;5094679;28;20070;-63
2020/12/27 19:47:17;;;;;;;35.92;20.08;;;;;;;;;;5076972;28;20039;-63
2020/12/27 19:49:45;;;;;;;32.28;17.20;;;;;;;;;;5094987;28;20040;-63
2020/12/27 19:52:11;;;;;;;37.47;18.40;;;;;;;;;;5093831;28;20016;-63
2020/12/27 19:54:36;;;;;;;23.23;13.57;;;;;;;;;;5094771;28;20042;-64
2020/12/27 19:57:02;;;;;;;31.65;18.10;;;;;;;;;;5094520;28;20032;-64
2020/12/27 19:59:27;;;;;;;37.50;21.02;;;;;;;;;;5094564;28;20035;-63
2020/12/27 20:01:54;;;;;;;43.47;23.20;;;;;;;;;;5094618;28;20089;-63
2020/12/27 20:04:20;;;;;;;33.40;19.77;;;;;;;;;;5076486;28;20052;-63
2020/12/27 20:06:45;;;;;;;41.58;22.70;;;;;;;;;;5094545;28;20036;-63
2020/12/27 20:09:11;;;;;;;69.05;27.50;;;;;;;;;;5094053;28;20044;-64
2020/12/27 20:11:36;;;;;;;48.58;22.45;;;;;;;;;;5094417;28;20026;-63
2020/12/27 20:14:02;;;;;;;60.35;28.90;;;;;;;;;;5075776;28;20039;-63
2020/12/27 20:16:27;;;;;;;60.25;28.63;;;;;;;;;;5075969;28;20032;-63
2020/12/27 20:18:54;;;;;;;73.35;32.50;;;;;;;;;;5094345;28;20101;-63
2020/12/27 20:21:23;;;;;;;45.20;22.40;;;;;;;;;;5094128;28;20078;-63
2020/12/27 20:23:50;;;;;;;49.92;26.77;;;;;;;;;;5094363;28;20783;-63
2020/12/27 20:26:16;;;;;;;46.88;24.30;;;;;;;;;;5093820;28;20031;-63
2020/12/27 20:28:45;;;;;;;49.95;24.75;;;;;;;;;;5093902;28;20086;-63
2020/12/27 20:31:11;;;;;;;71.07;33.47;;;;;;;;;;5094113;28;20052;-63
2020/12/27 20:33:37;;;;;;;52.58;24.77;;;;;;;;;;5094579;28;20521;-63
2020/12/27 20:36:07;;;;;;;68.25;33.75;;;;;;;;;;5094186;28;20020;-63
2020/12/27 20:38:32;;;;;;;53.35;22.83;;;;;;;;;;5094380;28;20039;-63
2020/12/27 20:40:58;;;;;;;68.03;29.95;;;;;;;;;;5094308;28;20036;-63
2020/12/27 20:43:23;;;;;;;121.15;63.35;;;;;;;;;;5094479;28;20047;-60
2020/12/27 20:45:49;;;;;;;143.85;77.03;;;;;;;;;;5094032;28;20024;-60
2020/12/27 20:48:14;;;;;;;98.32;57.72;;;;;;;;;;5094151;28;20040;-60
2020/12/27 20:50:40;;;;;;;79.72;46.72;;;;;;;;;;5094163;28;20032;-60
2020/12/27 20:53:05;;;;;;;107.20;60.13;;;;;;;;;;5094393;28;20063;-63
2020/12/27 20:55:31;;;;;;;48.50;26.77;;;;;;;;;;5094194;28;20090;-63
2020/12/27 20:57:56;;;;;;;39.55;21.13;;;;;;;;;;5075802;28;20040;-63
2020/12/27 21:00:23;;;;;;;46.28;22.23;;;;;;;;;;5093911;28;20475;-61
2020/12/27 21:02:48;;;;;;;75.18;29.70;;;;;;;;;;5071571;28;20044;-61
2020/12/27 21:05:14;;;;;;;49.92;22.35;;;;;;;;;;5073507;28;20066;-60
2020/12/27 21:07:39;;;;;;;37.58;16.95;;;;;;;;;;5073477;28;20489;-60
2020/12/27 21:10:05;;;;;;;27.65;16.05;;;;;;;;;;5072240;28;20020;-60
2020/12/27 21:12:31;;;;;;;27.25;15.43;;;;;;;;;;5072472;28;20068;-59
2020/12/27 21:14:56;;;;;;;26.40;14.10;;;;;;;;;;5073524;28;20115;-59
2020/12/27 21:17:22;;;;;;;27.60;15.80;;;;;;;;;;5073834;28;20123;-59
2020/12/27 21:19:47;;;;;;;24.17;14.27;;;;;;;;;;5073643;28;20146;-59